KAQW/AQW METAR and TAF weather

Enter ICAO airport designator
Station Type Date Time Source
KAQW METAR 2020/02/24 22:52 UTC NOAA

KAQW 242252Z AUTO 09004KT 10SM CLR 04/M02 A2990 RMK AO2 SLP134 T00441017 $


Station Type Date Time Source
KAQW Decoded METAR 2020/02/24 22:52 UTC NOAA

N ADAMS HARRIMAN-AND-WEST, MA, United States (KAQW) 42-42N 073-10W 201M
Feb 24, 2020 - 05:52 PM EST / 2020.02.24 2252 UTC
Wind: from the E (090 degrees) at 5 MPH (4 KT):0
Visibility: 10 mile(s):0
Sky conditions: clear
Temperature: 39.9 F (4.4 C)
Dew Point: 28.9 F (-1.7 C)
Relative Humidity: 64%
Pressure (altimeter): 29.9 in. Hg (1012 hPa)
ob: KAQW 242252Z AUTO 09004KT 10SM CLR 04/M02 A2990 RMK AO2 SLP134 T00441017
cycle: 23

Station Type Date Time Source
KAQW TAF UTC NOAA

Error!

Example: see airport list